createdAt,value
2023-11-06T00:00:10.242Z,14.10
2023-11-06T00:01:12.511Z,14.10
2023-11-06T00:02:15.327Z,15.57
2023-11-06T00:03:17.642Z,17.05
2023-11-06T00:04:19.813Z,15.43
2023-11-06T00:05:23.354Z,16.70
2023-11-06T00:06:25.649Z,15.52
2023-11-06T00:07:27.824Z,15.57
2023-11-06T00:08:30.649Z,15.25
2023-11-06T00:09:32.798Z,15.10
2023-11-06T00:10:34.945Z,15.40
2023-11-06T00:11:37.153Z,15.98
2023-11-06T00:12:40.215Z,16.20
2023-11-06T00:13:42.413Z,16.55
2023-11-06T00:14:44.657Z,16.38
2023-11-06T00:15:48.239Z,15.73
2023-11-06T00:17:54.684Z,16.15
2023-11-06T00:18:56.924Z,15.35
2023-11-06T00:19:59.066Z,15.20
2023-11-06T00:21:01.402Z,15.95
2023-11-06T00:22:03.911Z,15.25
2023-11-06T00:23:06.942Z,16.30
2023-11-06T00:24:09.430Z,14.20
2023-11-06T00:25:12.170Z,14.77
2023-11-06T00:26:15.260Z,13.75
2023-11-06T00:27:17.436Z,13.85
2023-11-06T00:28:19.699Z,14.38
2023-11-06T00:29:23.116Z,14.35
2023-11-06T00:30:25.399Z,13.48
2023-11-06T00:31:27.848Z,14.50
2023-11-06T00:32:30.160Z,13.27
2023-11-06T00:33:32.328Z,13.75
2023-11-06T00:34:34.610Z,13.07
2023-11-06T00:35:37.207Z,13.77
2023-11-06T00:36:39.402Z,14.43
2023-11-06T00:37:42.139Z,13.93
2023-11-06T00:38:44.711Z,12.68
2023-11-06T00:39:46.949Z,13.43
2023-11-06T00:40:49.648Z,13.65
2023-11-06T00:41:51.841Z,13.40
2023-11-06T00:42:54.012Z,12.70
2023-11-06T00:43:56.295Z,13.02
2023-11-06T00:44:58.517Z,14.07
2023-11-06T00:46:00.922Z,14.20
2023-11-06T00:47:03.070Z,13.85
2023-11-06T00:48:05.925Z,13.65
2023-11-06T00:49:09.695Z,12.95
2023-11-06T00:50:12.114Z,13.35
2023-11-06T00:51:14.966Z,14.30
2023-11-06T00:52:17.318Z,14.93
2023-11-06T00:53:19.533Z,12.95
2023-11-06T00:54:21.744Z,14.25
2023-11-06T00:55:23.884Z,13.68
2023-11-06T00:56:26.182Z,14.13
2023-11-06T00:57:28.414Z,13.10
2023-11-06T00:58:30.669Z,13.75
2023-11-06T00:59:33.516Z,14.10
2023-11-06T01:00:35.807Z,14.40
2023-11-06T01:01:38.097Z,14.35
2023-11-06T01:02:40.246Z,15.25
2023-11-06T01:03:42.639Z,13.60
2023-11-06T01:04:45.029Z,15.07
2023-11-06T01:05:47.243Z,15.23
2023-11-06T01:06:49.859Z,14.32
2023-11-06T01:07:52.411Z,14.90
2023-11-06T01:08:57.322Z,14.07
2023-11-06T01:09:59.546Z,14.63
2023-11-06T01:11:01.710Z,14.40
2023-11-06T01:12:04.294Z,14.80
2023-11-06T01:13:06.418Z,16.75
2023-11-06T01:14:08.596Z,14.63
2023-11-06T01:15:11.157Z,14.70
2023-11-06T01:16:13.789Z,15.88
2023-11-06T01:17:16.400Z,13.80
2023-11-06T01:18:19.244Z,15.20
2023-11-06T01:19:21.652Z,12.07
2023-11-06T01:20:23.853Z,15.02
2023-11-06T01:21:26.155Z,15.45
2023-11-06T01:22:38.647Z,14.52
2023-11-06T01:23:43.582Z,14.45
2023-11-06T01:24:45.809Z,15.43
2023-11-06T01:25:48.004Z,14.77
2023-11-06T01:26:51.193Z,13.32
2023-11-06T01:27:53.677Z,15.13
2023-11-06T01:28:55.847Z,14.93
2023-11-06T01:29:58.124Z,13.82
2023-11-06T01:31:00.391Z,13.65
2023-11-06T01:32:04.728Z,14.98
2023-11-06T01:33:07.003Z,12.80
2023-11-06T01:34:09.351Z,13.63
2023-11-06T01:35:14.542Z,12.10
2023-11-06T01:36:17.194Z,10.98
2023-11-06T01:37:19.334Z,10.57
2023-11-06T01:38:21.590Z,11.13
2023-11-06T01:39:26.613Z,11.10
2023-11-06T01:40:31.739Z,4.43
2023-11-06T01:41:33.895Z,5.72
2023-11-06T01:42:36.066Z,5.90
2023-11-06T01:43:38.402Z,3.60
2023-11-06T01:44:41.151Z,2.38
2023-11-06T01:45:43.274Z,1.27
2023-11-06T01:46:45.447Z,1.92
2023-11-06T01:47:48.605Z,2.10
2023-11-06T01:48:51.897Z,1.90
2023-11-06T01:49:54.241Z,1.70
2023-11-06T01:50:56.564Z,1.25
2023-11-06T01:51:59.122Z,1.45
2023-11-06T01:53:08.807Z,1.52
2023-11-06T01:54:13.297Z,1.38
2023-11-06T01:55:16.048Z,1.45
2023-11-06T01:56:18.607Z,1.60
2023-11-06T01:57:20.756Z,1.55
2023-11-06T01:58:22.980Z,1.10
2023-11-06T01:59:25.982Z,1.23
2023-11-06T02:00:28.940Z,1.58
2023-11-06T02:01:31.441Z,1.30
2023-11-06T02:02:34.982Z,1.30
2023-11-06T02:03:38.566Z,1.38
2023-11-06T02:04:48.725Z,1.42
2023-11-06T02:05:51.799Z,1.25
2023-11-06T02:06:54.715Z,1.40
2023-11-06T02:07:56.990Z,1.25
2023-11-06T02:09:02.006Z,1.13
2023-11-06T02:10:04.641Z,1.50
2023-11-06T02:11:07.167Z,1.40
2023-11-06T02:12:10.123Z,1.17
2023-11-06T02:13:12.330Z,1.02
2023-11-06T02:14:14.583Z,1.50
2023-11-06T02:15:17.260Z,1.27
2023-11-06T02:16:20.973Z,1.60
2023-11-06T02:17:23.270Z,1.13
2023-11-06T02:18:25.515Z,1.55
2023-11-06T02:19:27.853Z,1.23
2023-11-06T02:20:30.574Z,1.20
2023-11-06T02:21:37.173Z,1.30
2023-11-06T02:22:43.125Z,1.38
2023-11-06T02:23:45.431Z,1.40
2023-11-06T02:24:49.213Z,1.20
2023-11-06T02:25:51.483Z,1.02
2023-11-06T02:26:57.337Z,1.38
2023-11-06T02:27:59.585Z,1.40
2023-11-06T02:29:01.746Z,1.15
2023-11-06T02:30:04.231Z,1.50
2023-11-06T02:31:06.438Z,1.23
2023-11-06T02:32:08.788Z,1.30
2023-11-06T02:33:11.198Z,1.15
2023-11-06T02:34:13.640Z,1.20
2023-11-06T02:35:15.881Z,1.10
2023-11-06T02:36:18.768Z,0.82
2023-11-06T02:37:21.070Z,1.27
2023-11-06T02:38:23.711Z,1.20
2023-11-06T02:39:25.953Z,0.98
2023-11-06T02:40:28.198Z,1.45
2023-11-06T02:41:30.390Z,1.52
2023-11-06T02:42:32.564Z,1.23
2023-11-06T02:43:34.778Z,1.20
2023-11-06T02:44:36.974Z,1.40
2023-11-06T02:45:39.131Z,1.02
2023-11-06T02:46:41.270Z,1.15
2023-11-06T02:47:43.443Z,1.23
2023-11-06T02:48:45.608Z,1.35
2023-11-06T02:49:49.266Z,1.35
2023-11-06T02:51:55.189Z,1.48
2023-11-06T02:52:57.986Z,1.50
2023-11-06T02:54:02.825Z,1.30
2023-11-06T02:55:05.574Z,1.48
2023-11-06T02:56:07.849Z,1.50
2023-11-06T02:57:10.000Z,1.20
2023-11-06T02:58:12.689Z,1.40
2023-11-06T02:59:14.900Z,1.38
2023-11-06T03:00:17.274Z,1.40
2023-11-06T03:01:20.913Z,1.35
2023-11-06T03:02:23.076Z,1.42
2023-11-06T03:03:25.307Z,1.13
2023-11-06T03:04:28.876Z,1.38
2023-11-06T03:05:32.603Z,1.75
2023-11-06T03:06:35.630Z,1.42
2023-11-06T03:07:37.981Z,1.42
2023-11-06T03:08:40.178Z,1.20
2023-11-06T03:09:42.482Z,1.50
2023-11-06T03:10:44.667Z,1.38
2023-11-06T03:11:46.989Z,1.25
2023-11-06T03:12:49.153Z,1.20
2023-11-06T03:13:51.448Z,1.30
2023-11-06T03:14:53.830Z,1.38
2023-11-06T03:15:57.745Z,1.00
2023-11-06T03:17:00.722Z,1.33
2023-11-06T03:18:02.944Z,1.45
2023-11-06T03:19:05.243Z,1.25
2023-11-06T03:20:11.885Z,1.40
2023-11-06T03:21:14.121Z,1.30
2023-11-06T03:22:16.308Z,0.98
2023-11-06T03:23:18.523Z,1.10
2023-11-06T03:24:20.711Z,1.27
2023-11-06T03:25:23.801Z,1.25
2023-11-06T03:26:26.028Z,1.40
2023-11-06T03:27:28.251Z,1.23
2023-11-06T03:28:30.861Z,1.38
2023-11-06T03:29:33.060Z,1.33
2023-11-06T03:30:35.242Z,1.25
2023-11-06T03:31:37.479Z,1.48
2023-11-06T03:32:39.745Z,1.05
2023-11-06T03:33:44.811Z,1.45
2023-11-06T03:34:48.154Z,1.10
2023-11-06T03:35:50.334Z,1.48
2023-11-06T03:36:52.558Z,1.42
2023-11-06T03:37:54.728Z,1.40
2023-11-06T03:38:57.128Z,1.33
2023-11-06T03:39:59.241Z,1.23
2023-11-06T03:41:01.490Z,1.30
2023-11-06T03:42:03.946Z,1.30
2023-11-06T03:43:06.319Z,1.13
2023-11-06T03:44:08.563Z,1.10
2023-11-06T03:45:10.934Z,1.40
2023-11-06T03:46:13.057Z,1.30
2023-11-06T03:47:15.315Z,1.38
2023-11-06T03:48:17.810Z,1.27
2023-11-06T03:49:22.288Z,1.30
2023-11-06T03:50:24.495Z,1.20
2023-11-06T03:51:26.644Z,1.23
2023-11-06T03:52:28.847Z,1.20
2023-11-06T03:53:31.725Z,1.00
2023-11-06T03:54:33.916Z,1.00
2023-11-06T03:55:36.090Z,1.33
2023-11-06T03:56:38.737Z,1.30
2023-11-06T03:57:41.156Z,0.98
2023-11-06T03:58:43.315Z,1.13
2023-11-06T03:59:45.434Z,1.25
2023-11-06T04:00:48.125Z,1.25
2023-11-06T04:01:50.310Z,1.17
2023-11-06T04:02:52.548Z,1.23
2023-11-06T04:03:57.317Z,1.40
2023-11-06T04:05:00.371Z,1.63
2023-11-06T04:06:04.408Z,1.30
2023-11-06T04:07:06.692Z,1.08
2023-11-06T04:08:10.570Z,1.33
2023-11-06T04:09:12.795Z,1.23
2023-11-06T04:10:15.700Z,1.35
2023-11-06T04:11:17.864Z,1.27
2023-11-06T04:12:21.679Z,1.33
2023-11-06T04:13:25.008Z,1.10
2023-11-06T04:14:27.216Z,1.45
2023-11-06T04:15:29.552Z,1.27
2023-11-06T04:16:32.753Z,1.23
2023-11-06T04:17:35.076Z,1.23
2023-11-06T04:18:37.950Z,1.30
2023-11-06T04:19:40.114Z,1.23
2023-11-06T04:20:45.230Z,1.33
2023-11-06T04:21:47.426Z,1.30
2023-11-06T04:22:49.558Z,1.52
2023-11-06T04:23:51.697Z,1.25
2023-11-06T04:24:53.896Z,1.33
2023-11-06T04:25:56.088Z,1.60
2023-11-06T04:26:58.260Z,1.52
2023-11-06T04:28:00.680Z,1.27
2023-11-06T04:29:03.586Z,1.60
2023-11-06T04:30:08.636Z,1.80
2023-11-06T04:31:10.871Z,1.30
2023-11-06T04:32:13.147Z,1.52
2023-11-06T04:33:15.383Z,1.40
2023-11-06T04:34:17.550Z,1.42
2023-11-06T04:35:20.049Z,1.52
2023-11-06T04:36:22.616Z,1.63
2023-11-06T04:37:24.873Z,1.42
2023-11-06T04:38:27.040Z,1.63
2023-11-06T04:39:29.188Z,1.73
2023-11-06T04:40:31.665Z,1.58
2023-11-06T04:41:33.829Z,1.70
2023-11-06T04:42:35.951Z,1.90
2023-11-06T04:43:38.374Z,2.00
2023-11-06T04:44:40.581Z,2.05
2023-11-06T04:45:42.734Z,1.63
2023-11-06T04:46:45.389Z,1.70
2023-11-06T04:47:47.641Z,1.70
2023-11-06T04:48:49.855Z,1.83
2023-11-06T04:49:52.170Z,1.65
2023-11-06T04:50:54.400Z,1.50
2023-11-06T04:51:56.553Z,1.40
2023-11-06T04:52:58.926Z,1.45
2023-11-06T04:54:01.080Z,1.60
2023-11-06T04:55:03.539Z,1.50
2023-11-06T04:56:06.183Z,1.52
2023-11-06T04:57:08.357Z,1.88
2023-11-06T04:58:10.518Z,1.95
2023-11-06T04:59:12.685Z,1.83
2023-11-06T05:00:15.250Z,1.55
2023-11-06T05:01:20.269Z,1.55
2023-11-06T05:02:22.416Z,1.60
2023-11-06T05:03:24.812Z,1.50
2023-11-06T05:04:27.095Z,1.35
2023-11-06T05:05:30.046Z,1.55
2023-11-06T05:06:32.371Z,1.48
2023-11-06T05:07:34.633Z,1.48
2023-11-06T05:08:38.266Z,1.40
2023-11-06T05:09:40.629Z,1.92
2023-11-06T05:10:42.791Z,2.10
2023-11-06T05:11:44.981Z,1.60
2023-11-06T05:12:47.129Z,1.92
2023-11-06T05:13:52.576Z,2.03
2023-11-06T05:14:55.219Z,1.90
2023-11-06T05:15:57.442Z,1.85
2023-11-06T05:16:59.669Z,1.70
2023-11-06T05:18:03.659Z,1.52
2023-11-06T05:19:05.893Z,1.85
2023-11-06T05:20:11.333Z,1.58
2023-11-06T05:21:24.856Z,1.85
2023-11-06T05:22:27.027Z,2.35
2023-11-06T05:23:29.640Z,1.80
2023-11-06T05:24:31.908Z,1.92
2023-11-06T05:25:34.099Z,2.00
2023-11-06T05:26:38.732Z,2.30
2023-11-06T05:27:40.882Z,1.83
2023-11-06T05:28:43.612Z,2.13
2023-11-06T05:29:45.842Z,1.52
2023-11-06T05:30:47.966Z,1.58
2023-11-06T05:31:50.149Z,1.48
2023-11-06T05:32:54.360Z,1.65
2023-11-06T05:33:57.131Z,1.70
2023-11-06T05:35:01.457Z,2.08
2023-11-06T05:36:03.992Z,1.98
2023-11-06T05:37:07.581Z,2.08
2023-11-06T05:38:09.799Z,1.70
2023-11-06T05:39:12.677Z,2.33
2023-11-06T05:40:15.164Z,1.63
2023-11-06T05:41:17.454Z,1.63
2023-11-06T05:42:19.619Z,1.73
2023-11-06T05:43:21.805Z,1.42
2023-11-06T05:44:23.987Z,1.50
2023-11-06T05:45:26.195Z,1.42
2023-11-06T05:46:28.363Z,1.50
2023-11-06T05:47:30.613Z,1.58
2023-11-06T05:48:33.897Z,1.38
2023-11-06T05:49:37.727Z,1.48
2023-11-06T05:50:39.935Z,1.42
2023-11-06T05:51:42.227Z,1.42
2023-11-06T05:52:44.632Z,1.33
2023-11-06T05:53:47.314Z,1.60
2023-11-06T05:54:49.541Z,1.40
2023-11-06T05:55:51.710Z,1.50
2023-11-06T05:56:55.643Z,1.80
2023-11-06T05:57:57.909Z,1.38
2023-11-06T05:59:00.342Z,1.30
2023-11-06T06:00:02.589Z,1.35
2023-11-06T06:01:05.868Z,1.65
2023-11-06T06:02:09.893Z,1.52
2023-11-06T06:03:12.287Z,1.50
2023-11-06T06:04:14.862Z,1.35
2023-11-06T06:05:17.332Z,1.50
2023-11-06T06:06:19.667Z,1.45
2023-11-06T06:07:21.862Z,1.50
2023-11-06T06:08:24.093Z,1.55
2023-11-06T06:09:26.590Z,1.48
2023-11-06T06:10:28.750Z,1.70
2023-11-06T06:11:37.278Z,1.95
2023-11-06T06:12:39.467Z,1.48
2023-11-06T06:13:41.792Z,1.38
2023-11-06T06:14:43.918Z,1.80
2023-11-06T06:15:46.088Z,1.60
2023-11-06T06:16:50.657Z,1.60
2023-11-06T06:17:52.874Z,1.40
2023-11-06T06:18:55.180Z,1.50
2023-11-06T06:19:57.386Z,1.48
2023-11-06T06:20:59.640Z,1.38
2023-11-06T06:22:01.759Z,1.70
2023-11-06T06:23:04.563Z,1.65
2023-11-06T06:24:09.817Z,1.67
2023-11-06T06:25:13.970Z,2.50
2023-11-06T06:26:16.315Z,1.63
2023-11-06T06:27:18.576Z,1.77
2023-11-06T06:28:20.706Z,1.83
2023-11-06T06:29:22.928Z,1.80
2023-11-06T06:30:26.464Z,1.85
2023-11-06T06:31:28.733Z,2.10
2023-11-06T06:32:31.180Z,1.77
2023-11-06T06:33:33.574Z,1.95
2023-11-06T06:34:35.788Z,1.50
2023-11-06T06:35:38.136Z,1.60
2023-11-06T06:36:40.342Z,1.65
2023-11-06T06:37:42.548Z,1.65
2023-11-06T06:38:44.814Z,1.80
2023-11-06T06:39:46.984Z,1.80
2023-11-06T06:40:50.737Z,1.83
2023-11-06T06:41:53.535Z,2.22
2023-11-06T06:42:55.788Z,3.17
2023-11-06T06:43:58.035Z,2.45
2023-11-06T06:45:00.213Z,1.92
2023-11-06T06:46:03.406Z,2.20
2023-11-06T06:47:05.837Z,2.72
2023-11-06T06:48:08.094Z,2.40
2023-11-06T06:49:10.373Z,2.22
2023-11-06T06:50:12.532Z,2.20
2023-11-06T06:51:14.784Z,2.08
2023-11-06T06:52:16.989Z,2.17
2023-11-06T06:53:19.298Z,2.20
2023-11-06T06:54:21.477Z,2.20
2023-11-06T06:55:24.995Z,2.35
2023-11-06T06:56:27.193Z,2.20
2023-11-06T06:57:30.211Z,2.42
2023-11-06T06:58:32.548Z,2.22
2023-11-06T06:59:35.493Z,2.25
2023-11-06T07:00:37.674Z,2.05
2023-11-06T07:01:39.899Z,2.60
2023-11-06T07:02:42.249Z,2.38
2023-11-06T07:03:45.137Z,2.22
2023-11-06T07:04:48.131Z,2.08
2023-11-06T07:05:50.510Z,1.90
2023-11-06T07:06:53.138Z,2.10
2023-11-06T07:07:55.369Z,1.95
2023-11-06T07:08:58.454Z,1.85
2023-11-06T07:10:01.218Z,1.80
2023-11-06T07:11:03.741Z,2.05
2023-11-06T07:12:06.206Z,2.20
2023-11-06T07:13:08.366Z,2.10
2023-11-06T07:14:10.579Z,2.00
2023-11-06T07:15:12.859Z,1.80
2023-11-06T07:16:15.493Z,1.77
2023-11-06T07:17:18.529Z,2.03
2023-11-06T07:18:20.931Z,1.80
2023-11-06T07:19:23.359Z,2.03
2023-11-06T07:20:25.830Z,1.90
2023-11-06T07:21:28.870Z,2.00
2023-11-06T07:22:31.036Z,2.20
2023-11-06T07:23:33.239Z,1.85
2023-11-06T07:24:36.273Z,2.00
2023-11-06T07:25:38.591Z,2.15
2023-11-06T07:26:40.743Z,1.73
2023-11-06T07:27:44.123Z,1.83
2023-11-06T07:28:46.325Z,1.83
2023-11-06T07:29:48.900Z,1.90
2023-11-06T07:30:51.054Z,2.33
2023-11-06T07:31:54.061Z,1.98
2023-11-06T07:32:56.566Z,1.85
2023-11-06T07:33:58.964Z,1.85
2023-11-06T07:35:01.263Z,1.63
2023-11-06T07:36:03.910Z,1.98
2023-11-06T07:37:06.149Z,1.83
2023-11-06T07:38:08.328Z,1.48
2023-11-06T07:39:10.479Z,1.52
2023-11-06T07:40:14.948Z,1.63
2023-11-06T07:41:18.334Z,1.77
2023-11-06T07:42:20.560Z,1.63
2023-11-06T07:43:22.710Z,1.63
2023-11-06T07:44:24.898Z,1.60
2023-11-06T07:45:27.314Z,1.50
2023-11-06T07:46:29.648Z,1.60
2023-11-06T07:47:31.883Z,2.30
2023-11-06T07:48:34.215Z,2.28
2023-11-06T07:49:36.651Z,2.20
2023-11-06T07:50:39.269Z,1.80
2023-11-06T07:51:41.568Z,1.90
2023-11-06T07:52:43.744Z,2.00
2023-11-06T07:53:45.943Z,1.90
2023-11-06T07:54:48.130Z,1.70
2023-11-06T07:55:50.623Z,1.90
2023-11-06T07:56:54.153Z,2.22
2023-11-06T07:57:56.303Z,2.22
2023-11-06T07:58:58.684Z,2.67
2023-11-06T08:00:01.570Z,2.40
2023-11-06T08:01:04.881Z,2.80
2023-11-06T08:02:09.424Z,2.42
2023-11-06T08:04:13.855Z,2.45
2023-11-06T08:05:16.505Z,2.75
2023-11-06T08:06:18.875Z,2.58
2023-11-06T08:07:22.522Z,3.03
2023-11-06T08:08:25.248Z,3.20
2023-11-06T08:09:29.285Z,3.22
2023-11-06T08:10:32.812Z,2.75
2023-11-06T08:11:37.280Z,2.55
2023-11-06T08:12:39.557Z,2.60
2023-11-06T08:13:41.732Z,2.88
2023-11-06T08:14:44.016Z,2.80
2023-11-06T08:15:46.864Z,2.80
2023-11-06T08:16:49.334Z,3.17
2023-11-06T08:17:51.586Z,2.95
2023-11-06T08:18:54.738Z,2.95
2023-11-06T08:19:57.778Z,3.10
2023-11-06T08:21:00.900Z,3.00
2023-11-06T08:22:03.807Z,3.25
2023-11-06T08:23:06.212Z,2.95
2023-11-06T08:24:08.895Z,2.63
2023-11-06T08:25:13.049Z,2.65
2023-11-06T08:26:15.223Z,2.90
2023-11-06T08:27:18.665Z,3.03
2023-11-06T08:28:22.310Z,2.78
2023-11-06T08:29:25.595Z,3.03
2023-11-06T08:30:27.831Z,2.88
2023-11-06T08:31:30.467Z,2.83
2023-11-06T08:32:32.684Z,3.17
2023-11-06T08:33:35.092Z,2.92
2023-11-06T08:34:43.695Z,3.17
2023-11-06T08:35:47.195Z,2.83
2023-11-06T08:36:49.479Z,2.45
2023-11-06T08:37:52.494Z,2.55
2023-11-06T08:38:54.762Z,2.65
2023-11-06T08:39:56.997Z,2.30
2023-11-06T08:40:59.420Z,2.58
2023-11-06T08:42:01.565Z,2.40
2023-11-06T08:43:05.268Z,2.17
2023-11-06T08:44:07.459Z,2.70
2023-11-06T08:45:09.921Z,2.53
2023-11-06T08:46:12.295Z,2.55
2023-11-06T08:47:16.906Z,1.60
2023-11-06T08:48:19.325Z,1.67
2023-11-06T08:49:25.215Z,1.50
2023-11-06T08:50:30.847Z,1.40
2023-11-06T08:51:33.248Z,1.30
2023-11-06T08:52:35.544Z,1.23
2023-11-06T08:53:37.724Z,1.60
2023-11-06T08:54:42.635Z,1.08
2023-11-06T08:55:45.058Z,1.10
2023-11-06T08:56:47.703Z,1.10
2023-11-06T08:57:49.834Z,1.70
2023-11-06T08:58:51.981Z,1.13
2023-11-06T08:59:54.184Z,1.02
2023-11-06T09:00:56.866Z,1.33
2023-11-06T09:01:59.049Z,1.13
2023-11-06T09:03:01.892Z,1.00
2023-11-06T09:04:04.353Z,1.35
2023-11-06T09:05:07.518Z,1.17
2023-11-06T09:06:11.702Z,1.35
2023-11-06T09:07:15.363Z,0.93
2023-11-06T09:08:19.331Z,1.10
2023-11-06T09:09:21.531Z,1.10
2023-11-06T09:10:42.178Z,1.80
2023-11-06T09:11:44.389Z,2.05
2023-11-06T09:12:46.591Z,2.20
2023-11-06T09:13:48.802Z,1.90
2023-11-06T09:14:51.050Z,2.20
2023-11-06T09:15:53.195Z,2.25
2023-11-06T09:16:55.416Z,2.00
2023-11-06T09:17:57.757Z,1.95
2023-11-06T09:19:00.065Z,1.73
2023-11-06T09:20:03.221Z,1.65
2023-11-06T09:21:07.490Z,1.23
2023-11-06T09:22:10.019Z,1.60
2023-11-06T09:23:12.238Z,1.98
2023-11-06T09:24:14.678Z,2.03
2023-11-06T09:25:16.990Z,1.52
2023-11-06T09:26:20.472Z,1.55
2023-11-06T09:27:22.755Z,1.60
2023-11-06T09:28:26.203Z,1.60
2023-11-06T09:29:28.385Z,2.13
2023-11-06T09:30:30.562Z,2.03
2023-11-06T09:31:33.844Z,2.10
2023-11-06T09:32:36.021Z,1.63
2023-11-06T09:33:39.529Z,2.08
2023-11-06T09:34:41.746Z,1.88
2023-11-06T09:35:43.901Z,1.75
2023-11-06T09:36:46.094Z,1.65
2023-11-06T09:37:48.255Z,1.73
2023-11-06T09:38:50.450Z,1.92
2023-11-06T09:39:52.670Z,2.05
2023-11-06T09:40:55.175Z,2.03
2023-11-06T09:41:57.439Z,1.65
2023-11-06T09:42:59.820Z,1.90
2023-11-06T09:44:02.077Z,1.63
2023-11-06T09:45:04.997Z,1.60
2023-11-06T09:46:12.467Z,1.60
2023-11-06T09:47:17.052Z,1.58
2023-11-06T09:48:20.470Z,1.60
2023-11-06T09:49:28.485Z,1.83
2023-11-06T09:50:31.841Z,1.60
2023-11-06T09:51:37.718Z,1.92
2023-11-06T09:52:40.207Z,1.52
2023-11-06T09:53:46.205Z,1.40
2023-11-06T09:54:48.616Z,1.30
2023-11-06T09:55:54.638Z,1.40
2023-11-06T09:56:57.806Z,1.23
2023-11-06T09:58:02.525Z,1.10
2023-11-06T09:59:05.495Z,1.30
2023-11-06T10:00:10.537Z,1.20
2023-11-06T10:01:13.485Z,1.10
2023-11-06T10:02:15.748Z,1.40
2023-11-06T10:03:18.644Z,1.48
2023-11-06T10:04:21.614Z,1.55
2023-11-06T10:05:25.043Z,1.33
2023-11-06T10:06:27.260Z,1.10
2023-11-06T10:07:41.417Z,0.95
2023-11-06T10:08:43.685Z,1.48
2023-11-06T10:09:45.869Z,1.13
2023-11-06T10:10:58.287Z,1.30
2023-11-06T10:12:17.450Z,1.38
2023-11-06T10:13:19.617Z,1.60
2023-11-06T10:14:36.641Z,1.38
2023-11-06T10:15:39.601Z,1.60
2023-11-06T10:16:41.774Z,1.15
2023-11-06T10:17:44.488Z,1.40
2023-11-06T10:18:47.603Z,1.30
2023-11-06T10:20:00.791Z,1.20
2023-11-06T10:21:03.117Z,1.27
2023-11-06T10:22:15.430Z,1.48
2023-11-06T10:23:27.354Z,1.30
2023-11-06T10:24:30.227Z,1.50
2023-11-06T10:25:33.886Z,1.20
2023-11-06T10:26:36.258Z,1.23
2023-11-06T10:27:38.611Z,1.63
2023-11-06T10:28:42.678Z,1.38
2023-11-06T10:29:58.526Z,1.38
2023-11-06T10:31:01.665Z,2.25
2023-11-06T10:32:03.973Z,1.40
2023-11-06T10:33:14.070Z,1.50
2023-11-06T10:34:27.335Z,1.30
2023-11-06T10:35:29.708Z,1.38
2023-11-06T10:36:32.103Z,1.40
2023-11-06T10:37:46.376Z,1.30
2023-11-06T10:38:48.643Z,1.42
2023-11-06T10:39:58.059Z,1.20
2023-11-06T10:41:02.309Z,1.50
2023-11-06T10:42:06.176Z,1.10
2023-11-06T10:43:08.839Z,1.25
2023-11-06T10:44:11.536Z,1.77
2023-11-06T10:45:18.739Z,1.33
2023-11-06T10:46:21.033Z,1.90
2023-11-06T10:47:44.204Z,1.50
2023-11-06T10:48:52.072Z,1.23
2023-11-06T10:50:05.583Z,1.45
2023-11-06T10:51:11.248Z,1.33
2023-11-06T10:52:13.690Z,1.35
2023-11-06T10:53:16.692Z,1.30
2023-11-06T10:54:23.132Z,1.33
2023-11-06T10:55:32.149Z,1.27
2023-11-06T10:56:35.973Z,1.20
2023-11-06T10:57:38.862Z,1.60
2023-11-06T10:58:42.079Z,1.38
2023-11-06T10:59:44.906Z,1.40
2023-11-06T11:00:47.863Z,1.40
2023-11-06T11:01:50.127Z,1.13
2023-11-06T11:02:56.612Z,1.48
2023-11-06T11:04:00.319Z,1.13
2023-11-06T11:05:03.557Z,1.30
2023-11-06T11:06:06.116Z,1.40
2023-11-06T11:07:09.578Z,1.45
2023-11-06T11:08:11.983Z,1.25
2023-11-06T11:09:16.740Z,1.42
2023-11-06T11:10:20.935Z,1.05
2023-11-06T11:11:23.140Z,1.15
2023-11-06T11:12:26.069Z,1.27
2023-11-06T11:13:28.313Z,1.15
2023-11-06T11:14:30.921Z,1.23
2023-11-06T11:15:35.176Z,1.40
2023-11-06T11:16:46.295Z,1.40
2023-11-06T11:17:59.785Z,1.45
2023-11-06T11:19:02.362Z,1.50
2023-11-06T11:20:08.790Z,1.73
2023-11-06T11:21:11.010Z,1.65
2023-11-06T11:22:15.037Z,1.42
2023-11-06T11:23:17.810Z,1.40
2023-11-06T11:24:42.701Z,1.30
2023-11-06T11:25:59.142Z,1.30
2023-11-06T11:27:12.135Z,1.27
2023-11-06T11:28:15.168Z,1.85
2023-11-06T11:29:17.490Z,1.20
2023-11-06T11:30:27.765Z,1.45
2023-11-06T11:31:38.759Z,1.35
2023-11-06T11:32:49.632Z,1.40
2023-11-06T11:33:56.596Z,1.40
2023-11-06T11:35:11.043Z,1.60
2023-11-06T11:36:33.388Z,1.30
2023-11-06T11:37:38.199Z,1.27
2023-11-06T11:38:40.315Z,1.63
2023-11-06T11:39:52.922Z,1.25
2023-11-06T11:40:55.052Z,1.50
2023-11-06T11:42:05.433Z,1.00
2023-11-06T11:43:26.877Z,1.20
2023-11-06T11:44:29.159Z,1.40
2023-11-06T11:45:32.328Z,1.50
2023-11-06T11:46:35.275Z,1.38
2023-11-06T11:47:49.560Z,1.27
2023-11-06T11:48:51.961Z,1.23
2023-11-06T11:49:54.248Z,1.23
2023-11-06T11:50:56.627Z,1.60
2023-11-06T11:51:59.067Z,1.15
2023-11-06T11:53:01.360Z,1.48
2023-11-06T11:54:06.585Z,1.50
2023-11-06T11:55:28.697Z,1.52
2023-11-06T11:56:50.066Z,1.58
2023-11-06T11:57:54.772Z,1.70
2023-11-06T11:58:58.075Z,1.58
2023-11-06T12:00:00.290Z,1.42
2023-11-06T12:01:02.573Z,1.42
2023-11-06T12:02:06.545Z,2.05
2023-11-06T12:03:09.753Z,1.38
2023-11-06T12:04:22.576Z,1.30
2023-11-06T12:05:24.918Z,1.38
2023-11-06T12:06:35.848Z,1.48
2023-11-06T12:07:41.973Z,1.13
2023-11-06T12:08:44.231Z,1.80
2023-11-06T12:09:48.307Z,1.30
2023-11-06T12:10:51.545Z,1.52
2023-11-06T12:11:53.696Z,1.35
2023-11-06T12:12:59.902Z,1.40
2023-11-06T12:14:03.992Z,1.70
2023-11-06T12:15:12.178Z,1.58
2023-11-06T12:16:15.495Z,1.75
2023-11-06T12:17:32.248Z,1.50
2023-11-06T12:18:34.808Z,1.40
2023-11-06T12:19:40.653Z,1.60
2023-11-06T12:20:45.646Z,1.85
2023-11-06T12:22:02.918Z,1.52
2023-11-06T12:23:05.397Z,1.45
2023-11-06T12:24:11.659Z,1.67
2023-11-06T12:25:13.987Z,2.13
2023-11-06T12:26:18.317Z,1.92
2023-11-06T12:28:28.671Z,1.80
2023-11-06T12:29:31.022Z,1.52
2023-11-06T12:30:37.050Z,1.90
2023-11-06T12:31:39.391Z,1.90
2023-11-06T12:32:42.045Z,1.98
2023-11-06T12:33:44.620Z,1.73
2023-11-06T12:34:46.964Z,1.85
2023-11-06T12:35:52.133Z,1.40
2023-11-06T12:37:05.116Z,1.55
2023-11-06T12:38:07.710Z,1.50
2023-11-06T12:39:28.156Z,1.70
2023-11-06T12:40:30.307Z,1.40
2023-11-06T12:41:33.426Z,1.58
2023-11-06T12:42:35.685Z,1.30
2023-11-06T12:43:37.785Z,1.40
2023-11-06T12:44:41.274Z,1.30
2023-11-06T12:45:45.351Z,1.30
2023-11-06T12:47:56.431Z,1.45
2023-11-06T12:49:04.684Z,1.45
2023-11-06T12:50:07.693Z,1.38
2023-11-06T12:51:12.284Z,1.70
2023-11-06T12:52:22.192Z,1.40
2023-11-06T12:53:25.812Z,1.48
2023-11-06T12:54:29.398Z,2.05
2023-11-06T12:55:32.414Z,1.40
2023-11-06T12:56:34.670Z,1.60
2023-11-06T12:57:38.644Z,1.60
2023-11-06T12:58:40.995Z,1.75
2023-11-06T12:59:44.664Z,1.58
2023-11-06T13:00:54.577Z,1.80
2023-11-06T13:01:56.814Z,2.00
2023-11-06T13:02:59.382Z,1.63
2023-11-06T13:04:07.875Z,1.70
2023-11-06T13:05:11.326Z,1.60
2023-11-06T13:06:17.023Z,1.60
2023-11-06T13:07:19.148Z,1.70
2023-11-06T13:08:24.591Z,1.63
2023-11-06T13:09:26.817Z,1.60
2023-11-06T13:10:30.302Z,1.40
2023-11-06T13:11:38.440Z,1.60
2023-11-06T13:12:41.397Z,1.50
2023-11-06T13:13:44.229Z,1.73
2023-11-06T13:14:47.101Z,1.60
2023-11-06T13:15:49.366Z,1.83
2023-11-06T13:16:51.617Z,1.63
2023-11-06T13:17:56.142Z,1.40
2023-11-06T13:18:59.120Z,1.80
2023-11-06T13:20:01.307Z,1.98
2023-11-06T13:21:19.469Z,1.23
2023-11-06T13:22:21.606Z,1.27
2023-11-06T13:23:24.017Z,1.50
2023-11-06T13:24:30.364Z,1.65
2023-11-06T13:25:34.493Z,2.22
2023-11-06T13:26:37.956Z,1.60
2023-11-06T13:27:40.850Z,1.73
2023-11-06T13:28:43.672Z,1.45
2023-11-06T13:29:45.830Z,1.88
2023-11-06T13:30:48.037Z,1.63
2023-11-06T13:31:50.390Z,1.70
2023-11-06T13:32:52.778Z,1.83
2023-11-06T13:33:55.204Z,2.05
2023-11-06T13:34:57.382Z,1.65
2023-11-06T13:35:59.557Z,1.75
2023-11-06T13:37:01.726Z,1.60
2023-11-06T13:38:04.387Z,1.45
2023-11-06T13:39:06.988Z,1.92
2023-11-06T13:40:26.001Z,1.73
2023-11-06T13:41:29.801Z,1.70
2023-11-06T13:42:32.276Z,1.58
2023-11-06T13:43:38.137Z,1.45
2023-11-06T13:44:40.340Z,1.50
2023-11-06T13:45:43.099Z,1.58
2023-11-06T13:46:45.252Z,1.73
2023-11-06T13:47:53.839Z,1.60
2023-11-06T13:48:56.170Z,1.45
2023-11-06T13:49:58.333Z,1.60
2023-11-06T13:51:06.609Z,1.48
2023-11-06T13:52:25.001Z,1.77
2023-11-06T13:53:27.396Z,1.35
2023-11-06T13:54:34.712Z,1.58
2023-11-06T13:55:40.916Z,1.50
2023-11-06T13:56:45.249Z,1.45
2023-11-06T13:57:47.463Z,1.42
2023-11-06T13:58:50.150Z,1.88
2023-11-06T13:59:52.283Z,1.40
2023-11-06T14:01:08.519Z,1.20
2023-11-06T14:02:13.027Z,1.38
2023-11-06T14:04:21.189Z,1.92
2023-11-06T14:05:26.626Z,1.85
2023-11-06T14:06:28.892Z,1.52
2023-11-06T14:07:31.060Z,2.17
2023-11-06T14:08:33.678Z,1.58
2023-11-06T14:09:39.504Z,1.90